Latest Weather Observations for Hopetoun Airport

IDV60801

Issued at 4:03 am EDT Thursday 23 February 2017 (issued every 30 minutes, with the page automatically refreshed every 10 minutes)

About weather observations | Map of weather stations | Latest weather observations for VIC | Other Formats
Station Details ID: 077010 Name: HOPETOUN AIRPORT Lat: -35.72 Lon: 142.36 Height: 77.3 m
Data from the previous 72 hours. | See also: Recent months at Hopetoun Airport
Date/Time
EDT
Temp
°C
App
Temp
°C
Dew
Point
°C
Rel
Hum
%
Delta-T
°C
Wind Press
QNH
hPa
Press
MSL
hPa
Rain since
9am
mm
Dir  Spd
km/h
Gust
km/h
Spd
kts
Gust
kts
23/04:00am 14.8 13.1 10.0 73 2.5 W 9 11 5 6 1014.9 1014.6 0.0
23/03:30am 15.6 13.5 9.9 69 3.0 WSW 11 13 6 7 1014.7 1014.4 0.0
23/03:00am 16.5 14.1 10.1 66 3.4 WSW 13 17 7 9 1014.6 1014.3 0.0
23/02:30am 17.1 14.6 9.8 62 3.8 WSW 13 19 7 10 1014.6 1014.3 0.0
23/02:00am 17.3 14.3 9.2 59 4.2 WSW 15 17 8 9 1014.5 1014.2 0.0
23/01:30am 17.9 15.3 9.3 57 4.5 WSW 13 17 7 9 1014.4 1014.1 0.0
23/01:00am 18.8 15.4 9.3 54 5.0 WSW 17 20 9 11 1014.2 1013.9 0.0
23/12:30am 19.7 15.3 9.0 50 5.6 WSW 22 30 12 16 1014.1 1013.8 0.0
23/12:00am 20.4 15.5 8.4 46 6.3 WSW 24 37 13 20 1013.8 1013.5 0.0
 
Date/Time
EDT
Temp
°C
App
Temp
°C
Dew
Point
°C
Rel
Hum
%
Delta-T
°C
Wind Press
QNH
hPa
Press
MSL
hPa
Rain since
9am
mm
Dir  Spd
km/h
Gust
km/h
Spd
kts
Gust
kts
22/11:30pm 21.2 15.8 8.1 43 6.9 WSW 26 33 14 18 1013.5 1013.2 0.0
22/11:00pm 21.3 17.7 8.2 43 6.9 SW 17 24 9 13 1013.3 1013.0 0.0
22/10:30pm 22.1 17.5 8.2 41 7.3 SW 22 30 12 16 1012.8 1012.5 0.0
22/10:00pm 22.9 16.7 7.8 38 7.9 SW 30 39 16 21 1012.4 1012.1 0.0
22/09:30pm 24.1 18.2 8.9 38 8.2 SW 30 46 16 25 1011.5 1011.2 0.0
22/09:00pm 25.1 18.8 9.8 38 8.4 SW 33 46 18 25 1010.6 1010.3 0.0
22/08:30pm 27.0 19.5 9.4 33 9.7 WSW 39 46 21 25 1009.6 1009.3 0.0
22/08:00pm 29.1 21.4 8.7 28 11.3 WSW 39 54 21 29 1008.5 1008.2 0.0
22/07:42pm 32.9 25.6 5.5 18 14.7 W 33 54 18 29 1007.7 1007.3 0.0
22/07:30pm 34.8 28.3 -2.7 9 17.8 NNW 22 35 12 19 1007.2 1006.8 0.0
22/07:00pm 35.5 27.9 -2.2 9 18.1 NNW 28 44 15 24 1007.2 1006.8 0.0
22/06:30pm 36.1 27.6 -3.3 8 18.6 NNW 32 46 17 25 1007.2 1006.8 0.0
22/06:00pm 36.0 27.7 -1.8 9 18.4 NNW 32 44 17 24 1007.2 1006.8 0.0
22/05:30pm 36.2 28.7 -1.7 9 18.4 NNW 28 37 15 20 1007.3 1006.9 0.0
22/05:18pm 36.3 28.8 -1.6 9 18.5 NW 28 48 15 26 1007.3 1006.9 0.0
22/05:00pm 35.6 27.2 -2.1 9 18.2 NW 32 44 17 24 1007.6 1007.2 0.0
22/04:39pm 36.4 28.5 -1.5 9 18.5 NW 30 48 16 26 1007.8 1007.4 0.0
22/04:30pm 36.1 27.8 -1.7 9 18.3 NNW 32 44 17 24 1007.9 1007.5 0.0
22/04:00pm 35.9 27.0 -1.9 9 18.3 NW 35 46 19 25 1008.3 1007.9 0.0
22/03:56pm 36.1 27.2 -1.7 9 18.3 NW 35 46 19 25 1008.3 1007.9 0.0
22/03:34pm 36.1 28.2 -1.7 9 18.3 NNW 30 50 16 27 1008.5 1008.2 0.0
22/03:30pm 35.5 28.1 -0.8 10 17.8 NNW 28 44 15 24 1008.8 1008.5 0.0
22/03:10pm 36.0 28.3 -0.4 10 18.0 NNW 30 48 16 26 1008.9 1008.6 0.0
22/03:00pm 35.1 25.9 -1.1 10 17.7 NW 37 50 20 27 1009.2 1008.9 0.0
22/02:30pm 35.2 27.0 -1.0 10 17.7 NNW 32 52 17 28 1009.7 1009.4 0.0
22/02:05pm 34.5 26.2 -0.2 11 17.1 N 33 52 18 28 1009.9 1009.6 0.0
22/02:00pm 34.6 26.3 -0.1 11 17.1 N 33 46 18 25 1009.9 1009.6 0.0
22/01:30pm 34.0 25.7 -0.6 11 16.9 N 33 44 18 24 1010.7 1010.4 0.0
22/01:00pm 33.9 25.2 -0.7 11 16.8 N 35 57 19 31 1010.9 1010.6 0.0
22/12:41pm 32.7 24.0 -0.4 12 16.0 N 35 54 19 29 1011.1 1010.8 0.0
22/12:30pm 32.8 24.5 -0.3 12 16.1 N 33 50 18 27 1011.2 1010.9 0.0
22/12:00pm 31.8 23.4 -1.1 12 15.7 N 33 48 18 26 1011.6 1011.3 0.0
22/11:30am 30.5 22.6 1.0 15 14.4 N 32 41 17 22 1012.7 1012.4 0.0
22/11:00am 29.3 21.9 1.7 17 13.6 NNE 30 43 16 23 1013.0 1012.7 0.0
22/10:30am 27.5 19.7 1.8 19 12.5 NNE 32 43 17 23 1013.4 1013.1 0.0
22/10:00am 25.3 18.4 2.7 23 11.0 NNE 28 39 15 21 1013.8 1013.5 0.0
22/09:30am 23.1 16.3 3.1 27 9.6 NNE 28 35 15 19 1014.1 1013.8 0.0
22/09:00am 20.3 14.7 3.5 33 8.0 NNE 22 32 12 17 1014.2 1013.9 0.0
22/08:30am 17.1 12.9 3.8 41 6.2 NE 15 20 8 11 1014.1 1013.8 0.0
22/08:00am 16.0 11.3 3.4 43 5.8 NE 17 22 9 12 1013.9 1013.6 0.0
22/07:30am 13.7 10.2 3.5 50 4.6 NE 11 15 6 8 1013.7 1013.4 0.0
22/07:00am 12.8 9.2 3.2 52 4.3 NE 11 15 6 8 1013.7 1013.4 0.0
22/06:30am 13.2 9.6 3.0 50 4.5 NE 11 13 6 7 1013.3 1013.0 0.0
22/06:00am 14.2 10.3 3.4 48 4.9 NE 13 17 7 9 1013.2 1012.9 0.0
22/05:30am 14.3 10.8 3.5 48 4.9 NE 11 15 6 8 1013.2 1012.9 0.0
22/05:00am 14.4 10.5 3.5 48 5.0 NE 13 17 7 9 1013.4 1013.1 0.0
22/04:30am 14.8 10.5 3.3 46 5.2 NE 15 19 8 10 1013.5 1013.2 0.0
22/04:00am 14.8 11.0 3.9 48 5.0 NE 13 17 7 9 1013.6 1013.3 0.0
22/03:30am 14.0 10.4 3.2 48 4.9 ENE 11 13 6 7 1014.0 1013.7 0.0
22/03:00am 14.7 11.5 2.9 45 5.3 ENE 9 13 5 7 1014.3 1014.0 0.0
22/02:30am 15.2 11.7 3.4 45 5.4 ENE 11 13 6 7 1014.7 1014.4 0.0
22/02:00am 15.3 12.1 3.1 44 5.5 ENE 9 13 5 7 1015.1 1014.8 0.0
22/01:30am 15.0 11.1 3.2 45 5.4 NE 13 13 7 7 1015.4 1015.1 0.0
22/01:00am 15.4 11.8 2.9 43 5.7 NE 11 13 6 7 1015.8 1015.5 0.0
22/12:30am 15.0 11.4 3.2 45 5.4 NE 11 13 6 7 1015.9 1015.6 0.0
22/12:00am 14.9 11.3 2.8 44 5.4 ENE 11 11 6 6 1016.3 1015.9 0.0
 
Date/Time
EDT
Temp
°C
App
Temp
°C
Dew
Point
°C
Rel
Hum
%
Delta-T
°C
Wind Press
QNH
hPa
Press
MSL
hPa
Rain since
9am
mm
Dir  Spd
km/h
Gust
km/h
Spd
kts
Gust
kts
21/11:30pm 15.5 11.9 2.7 42 5.8 ENE 11 13 6 7 1016.4 1016.0 0.0
21/11:00pm 15.9 12.6 2.7 41 6.0 ENE 9 11 5 6 1016.5 1016.1 0.0
21/10:30pm 16.1 12.4 2.2 39 6.2 NE 11 13 6 7 1016.7 1016.3 0.0
21/10:00pm 18.4 15.3 1.4 32 7.6 ENE 7 9 4 5 1016.7 1016.3 0.0
21/09:30pm 17.8 14.4 1.7 34 7.3 ENE 9 9 5 5 1016.3 1015.9 0.0
21/09:00pm 18.7 14.9 1.7 32 7.7 ENE 11 13 6 7 1015.8 1015.5 0.0
21/08:30pm 20.9 16.7 1.7 28 8.9 ENE 13 15 7 8 1015.7 1015.4 0.0
21/08:00pm 24.4 20.6 1.9 23 10.7 ENE 11 13 6 7 1015.6 1015.3 0.0
21/07:30pm 27.1 23.3 -0.9 16 12.9 NNE 9 13 5 7 1015.5 1015.2 0.0
21/07:00pm 27.7 24.1 0.5 17 12.9 NE 9 15 5 8 1015.5 1015.2 0.0
21/06:30pm 28.0 24.0 0.7 17 13.1 NE 11 20 6 11 1015.6 1015.3 0.0
21/06:00pm 28.0 24.3 -0.1 16 13.2 NNE 9 15 5 8 1015.8 1015.5 0.0
21/05:30pm 27.7 23.7 0.5 17 12.9 NNE 11 17 6 9 1016.1 1015.8 0.0
21/05:00pm 27.7 24.5 0.5 17 12.9 ESE 7 19 4 10 1016.6 1016.2 0.0
21/04:30pm 27.5 24.4 1.1 18 12.7 ENE 7 17 4 9 1016.8 1016.4 0.0
21/04:00pm 27.3 24.3 1.7 19 12.4 N 7 15 4 8 1016.9 1016.5 0.0
21/03:30pm 27.0 23.5 1.4 19 12.3 NNE 9 30 5 16 1017.5 1017.1 0.0
21/03:00pm 26.3 23.2 1.6 20 11.8 NNW 7 17 4 9 1018.3 1017.9 0.0
21/02:30pm 26.1 22.7 2.1 21 11.6 ENE 9 24 5 13 1018.6 1018.2 0.0
21/02:00pm 25.4 22.2 2.8 23 11.0 NNE 9 20 5 11 1019.0 1018.6 0.0
21/01:30pm 24.7 20.9 3.9 26 10.3 N 13 20 7 11 1019.3 1018.9 0.0
21/01:00pm 23.9 20.1 3.8 27 9.9 NNE 13 24 7 13 1019.5 1019.1 0.0
21/12:30pm 24.1 21.8 5.0 29 9.6 N 6 15 3 8 1020.2 1019.9 0.0
21/12:00pm 22.7 19.5 5.2 32 8.7 ENE 11 17 6 9 1020.7 1020.4 0.0
21/11:30am 21.8 18.3 5.3 34 8.2 NE 13 24 7 13 1021.1 1020.8 0.0
21/11:00am 21.0 17.5 7.3 41 7.0 NE 15 24 8 13 1021.4 1021.1 0.0
21/10:30am 19.8 15.5 6.9 43 6.5 ENE 19 26 10 14 1021.4 1021.1 0.0
21/10:00am 18.4 13.8 6.3 45 6.0 ENE 20 28 11 15 1021.6 1021.3 0.0
21/09:30am 17.3 12.7 6.5 49 5.3 E 20 26 11 14 1021.2 1020.9 0.0
21/09:00am 15.3 10.8 6.3 55 4.4 E 19 24 10 13 1021.1 1020.8 0.0
21/08:30am 12.5 9.2 6.5 67 2.9 ESE 13 17 7 9 1020.7 1020.4 0.0
21/08:00am 10.6 7.5 5.6 71 2.3 ESE 11 15 6 8 1020.3 1020.0 0.0
21/07:30am 8.8 6.0 5.2 78 1.6 SE 9 13 5 7 1020.3 1020.0 0.0
21/07:00am 8.7 5.9 5.3 79 1.5 SE 9 13 5 7 1019.9 1019.6 0.0
21/06:30am 9.2 6.5 5.4 77 1.7 ESE 9 13 5 7 1019.5 1019.1 0.0
21/06:00am 9.6 6.5 5.4 75 1.9 SE 11 13 6 7 1019.2 1018.8 0.0
21/05:30am 9.6 6.9 5.6 76 1.8 SE 9 13 5 7 1019.1 1018.7 0.0
21/05:00am 9.4 6.7 5.4 76 1.8 SE 9 11 5 6 1019.2 1018.8 0.0
21/04:30am 9.8 7.1 5.4 74 2.0 SE 9 13 5 7 1019.0 1018.6 0.0
21/04:00am 10.3 7.1 5.3 71 2.3 SE 11 13 6 7 1019.1 1018.7 0.0
21/03:30am 10.7 7.2 5.5 70 2.4 SE 13 15 7 8 1019.0 1018.6 0.0
21/03:00am 11.1 8.0 5.4 68 2.6 SE 11 15 6 8 1018.9 1018.5 0.0
21/02:30am 11.3 8.2 5.4 67 2.7 SE 11 13 6 7 1018.8 1018.4 0.0
21/02:00am 11.9 8.7 5.3 64 3.0 SE 11 15 6 8 1018.8 1018.4 0.0
21/01:30am 12.7 9.1 5.1 60 3.5 SE 13 19 7 10 1019.0 1018.6 0.0
21/01:00am 13.1 9.0 4.5 56 3.9 SSE 15 17 8 9 1019.0 1018.6 0.0
21/12:30am 13.2 10.1 3.8 53 4.3 SSE 9 13 5 7 1018.9 1018.5 0.0
21/12:00am 13.6 10.5 3.7 51 4.5 S 9 11 5 6 1018.6 1018.2 0.0
 
Date/Time
EDT
Temp
°C
App
Temp
°C
Dew
Point
°C
Rel
Hum
%
Delta-T
°C
Wind Press
QNH
hPa
Press
MSL
hPa
Rain since
9am
mm
Dir  Spd
km/h
Gust
km/h
Spd
kts
Gust
kts
20/11:30pm 13.2 10.1 3.8 53 4.3 SSE 9 11 5 6 1018.7 1018.3 0.0
20/11:00pm 14.6 11.9 3.7 48 5.0 SSE 7 9 4 5 1018.6 1018.2 0.0
20/10:30pm 14.6 11.5 3.4 47 5.1 SSE 9 11 5 6 1018.3 1017.9 0.0
20/10:00pm 16.7 13.1 3.1 40 6.2 S 11 15 6 8 1018.3 1017.9 0.0
20/09:30pm 16.4 13.2 2.8 40 6.2 SSE 9 13 5 7 1017.9 1017.5 0.0
20/09:00pm 18.3 15.0 2.2 34 7.3 S 9 11 5 6 1017.5 1017.1 0.0
20/08:30pm 18.8 15.4 1.8 32 7.7 S 9 13 5 7 1017.0 1016.6 0.0
20/08:00pm 20.4 16.6 1.8 29 8.6 SSW 11 17 6 9 1016.5 1016.1 0.0
20/07:30pm 21.2 16.3 2.0 28 8.9 SSW 17 24 9 13 1016.1 1015.8 0.0
20/07:00pm 22.0 17.9 2.2 27 9.3 SSW 13 24 7 13 1015.7 1015.4 0.0
20/06:30pm 22.0 16.1 1.6 26 9.5 SW 22 30 12 16 1015.6 1015.3 0.0
20/06:00pm 22.3 16.9 1.3 25 9.7 SSW 19 28 10 15 1015.4 1015.1 0.0
20/05:30pm 21.9 17.7 1.6 26 9.4 SSW 13 28 7 15 1015.3 1015.0 0.0
20/05:00pm 22.2 16.9 1.8 26 9.5 SW 19 32 10 17 1015.3 1015.0 0.0
20/04:30pm 22.1 16.2 1.7 26 9.5 WSW 22 39 12 21 1015.3 1015.0 0.0
20/04:00pm 22.4 17.1 2.0 26 9.6 SW 19 32 10 17 1015.4 1015.1 0.0
20/03:30pm 22.1 16.9 2.2 27 9.4 WSW 19 28 10 15 1015.5 1015.2 0.0
20/03:00pm 21.2 16.5 3.0 30 8.6 SW 17 32 9 17 1015.8 1015.5 0.0
20/02:30pm 20.8 16.0 2.6 30 8.5 WSW 17 26 9 14 1015.8 1015.5 0.0
20/02:00pm 20.8 15.6 3.5 32 8.3 WSW 20 32 11 17 1016.1 1015.8 0.0
20/01:30pm 19.5 15.6 3.2 34 7.7 SSW 13 26 7 14 1016.4 1016.0 0.0
20/01:00pm 20.2 15.5 3.4 33 8.0 SSW 17 30 9 16 1016.6 1016.2 0.0
20/12:30pm 19.4 16.0 5.8 41 6.7 SW 13 22 7 12 1016.8 1016.4 0.0
20/12:00pm 18.8 14.3 4.2 38 7.0 SW 17 24 9 13 1017.2 1016.8 0.0
20/11:30am 18.1 13.2 5.3 43 6.2 SW 20 30 11 16 1017.5 1017.1 0.0
20/11:00am 17.2 12.4 5.8 47 5.5 SW 20 32 11 17 1017.7 1017.3 0.0
20/10:30am 16.4 11.7 6.2 51 5.0 SW 20 28 11 15 1017.6 1017.2 0.0
20/10:00am 15.4 10.6 7.4 59 4.0 SW 22 30 12 16 1017.5 1017.1 0.0
20/09:30am 13.9 10.0 7.2 64 3.3 WSW 17 20 9 11 1017.6 1017.2 0.0
20/09:00am 12.1 7.8 6.8 70 2.5 SW 19 24 10 13 1017.4 1017.0 1.4
20/08:30am 10.4 6.8 6.7 78 1.7 WSW 15 19 8 10 1016.9 1016.5 1.4
20/08:00am 7.8 5.2 5.9 88 0.9 W 9 13 5 7 1016.7 1016.3 1.4
20/07:30am 6.2 3.3 4.8 91 0.6 WSW 9 11 5 6 1016.4 1016.0 1.4
20/07:00am 6.5 3.2 4.8 89 0.7 WSW 11 13 6 7 1016.0 1015.7 1.4
20/06:30am 6.7 3.1 4.9 88 0.8 WSW 13 15 7 8 1015.5 1015.2 1.4
20/06:00am 7.0 3.1 5.2 88 0.8 WSW 15 19 8 10 1015.3 1015.0 1.4
20/05:30am 6.7 3.1 4.9 88 0.8 W 13 15 7 8 1015.0 1014.7 1.4
20/05:00am 7.3 4.1 5.1 86 1.0 WSW 11 13 6 7 1014.7 1014.4 1.4
20/04:30am 7.4 4.6 5.0 85 1.1 WSW 9 11 5 6 1014.6 1014.3 1.4

Other Formats:

Comma delimited format used in spreadsheet applications
http://www.bom.gov.au/fwo/IDV60801/IDV60801.94838.axf

JavaScript Object Notation format (JSON) in row-major order
http://www.bom.gov.au/fwo/IDV60801/IDV60801.94838.json